Dennehotso, AZ

12:40 PM MST on February 01, 2015 (GMT -0700)
Blanding | Change Station
CLOSE
Current Station
Airport
Location: Blanding,
Elevation: 5866 ft
Nearby Weather Stations

Elev 5866 ft 37.58 °N, 109.48 °W | Updated 25 minutes ago

Clear
Clear
43 °F
Feels Like 40 °F
N
5
Wind Variable Wind from SSW

Today
High -- | Low -- °F
--% Chance of Precip.
Yesterday
High -- | Low -- °F
Precip. -- in
7:21 AM 5:44 PM
Waxing Gibbous, 96% visible
Pressure 30.24 in
Visibility 10.0 miles
Clouds Scattered Clouds 2800 ft
Windchill 40 °F
Dew Point 32 °F
Humidity 65%
Rainfall 0.00 in
Snow Depth Not available.
UV 4 out of 12
Pollen .60 out of 12
Air Quality Not available.
Flu Activity Not available.
METAR KBDG 011915Z AUTO 20004KT 10SM SCT028 06/00 A3024 RMK AO1 T00610000

More Conditions Fewer Conditions

Pressure 30.24 in
Visibility 10.0 miles
Clouds Scattered Clouds 2800 ft
Windchill 40 °F
Dew Point 32 °F
Humidity 65%
Rainfall 0.00 in
Snow Depth Not available.
UV 4 out of 12
Pollen .60 out of 12
Air Quality Not available.
Flu Activity Not available.
METAR KBDG 011915Z AUTO 20004KT 10SM SCT028 06/00 A3024 RMK AO1 T00610000

More Conditions Fewer Conditions

10-Day Weather Forecast

Almanac

Astronomy

Feb. 01, 2015 Rise Set
Actual Time
Civil Twilight
Nautical Twilight
Astronomical Twilight
Moon
Length of Visible Light
Length of Day
Tomorrow will be .
, % of the Moon is Illuminated

Today's Extremes

State Highs State Lows

Community

WunderPhotos

Upload Photos

1,792,471 photos uploaded!

WunderBlogs® & News

Nearby

Air Quality

  Air Quality AQ Index Pollutant
Not available.

Snow Depth

Station Depth Elevation

Earthquake Activity

City Distance Mag. Time & Date
Minimum magnitude displayed is 2.5.

Coastal Water Temperatures

Place Temperature

Nearby Weather Stations